sensor_id;sensor_type;location;lat;lon;timestamp;pressure;altitude;pressure_sealevel;temperature;humidity
14882;BME280;7533;51.278;12.588;2022-10-23T00:02:32;100289.00;;;23.86;70.48
14882;BME280;7533;51.278;12.588;2022-10-23T00:07:35;100292.56;;;23.86;70.58
14882;BME280;7533;51.278;12.588;2022-10-23T00:12:39;100294.41;;;23.86;70.63
14882;BME280;7533;51.278;12.588;2022-10-23T00:17:42;100287.38;;;23.83;70.61
14882;BME280;7533;51.278;12.588;2022-10-23T00:22:45;100282.09;;;23.82;70.57
14882;BME280;7533;51.278;12.588;2022-10-23T00:27:49;100286.88;;;23.78;70.65
14882;BME280;7533;51.278;12.588;2022-10-23T00:32:52;100285.28;;;23.75;70.88
14882;BME280;7533;51.278;12.588;2022-10-23T00:37:55;100284.53;;;23.73;70.73
14882;BME280;7533;51.278;12.588;2022-10-23T00:42:59;100285.88;;;23.68;71.00
14882;BME280;7533;51.278;12.588;2022-10-23T00:48:02;100290.00;;;23.61;71.35
14882;BME280;7533;51.278;12.588;2022-10-23T00:53:06;100279.81;;;23.53;71.56
14882;BME280;7533;51.278;12.588;2022-10-23T00:58:13;100283.97;;;23.46;71.83
14882;BME280;7533;51.278;12.588;2022-10-23T01:03:18;100283.47;;;23.41;72.32
14882;BME280;7533;51.278;12.588;2022-10-23T01:08:27;100286.66;;;23.35;72.36
14882;BME280;7533;51.278;12.588;2022-10-23T01:13:38;100285.28;;;23.29;72.65
14882;BME280;7533;51.278;12.588;2022-10-23T01:18:49;100283.94;;;23.23;73.17
14882;BME280;7533;51.278;12.588;2022-10-23T01:24:05;100289.66;;;23.19;73.22
14882;BME280;7533;51.278;12.588;2022-10-23T01:29:17;100287.44;;;23.13;73.40
14882;BME280;7533;51.278;12.588;2022-10-23T01:34:27;100278.91;;;23.06;73.69
14882;BME280;7533;51.278;12.588;2022-10-23T01:39:35;100272.91;;;23.03;73.81
14882;BME280;7533;51.278;12.588;2022-10-23T01:44:44;100269.69;;;22.98;73.87
14882;BME280;7533;51.278;12.588;2022-10-23T01:49:50;100260.22;;;22.92;74.07
14882;BME280;7533;51.278;12.588;2022-10-23T01:54:58;100259.50;;;22.90;74.27
14882;BME280;7533;51.278;12.588;2022-10-23T02:00:10;100275.03;;;22.86;74.49
14882;BME280;7533;51.278;12.588;2022-10-23T02:05:26;100270.69;;;22.84;74.64
14882;BME280;7533;51.278;12.588;2022-10-23T02:10:44;100267.25;;;22.82;74.54
14882;BME280;7533;51.278;12.588;2022-10-23T02:15:57;100262.97;;;22.79;74.87
14882;BME280;7533;51.278;12.588;2022-10-23T02:21:06;100259.50;;;22.77;74.95
14882;BME280;7533;51.278;12.588;2022-10-23T02:26:15;100261.34;;;22.77;74.89
14882;BME280;7533;51.278;12.588;2022-10-23T02:31:23;100261.47;;;22.75;75.09
14882;BME280;7533;51.278;12.588;2022-10-23T02:36:27;100252.75;;;22.71;75.25
14882;BME280;7533;51.278;12.588;2022-10-23T02:41:37;100245.50;;;22.72;75.36
14882;BME280;7533;51.278;12.588;2022-10-23T02:46:49;100246.81;;;22.66;75.39
14882;BME280;7533;51.278;12.588;2022-10-23T02:52:02;100248.06;;;22.62;75.69
14882;BME280;7533;51.278;12.588;2022-10-23T02:57:15;100245.56;;;22.59;75.76
14882;BME280;7533;51.278;12.588;2022-10-23T03:02:27;100250.22;;;22.57;75.80
14882;BME280;7533;51.278;12.588;2022-10-23T03:07:38;100251.41;;;22.53;76.22
14882;BME280;7533;51.278;12.588;2022-10-23T03:12:44;100243.44;;;22.52;76.10
14882;BME280;7533;51.278;12.588;2022-10-23T03:17:49;100239.03;;;22.51;76.07
14882;BME280;7533;51.278;12.588;2022-10-23T03:22:51;100242.69;;;22.50;76.17
14882;BME280;7533;51.278;12.588;2022-10-23T03:27:54;100234.84;;;22.47;76.33
14882;BME280;7533;51.278;12.588;2022-10-23T03:32:58;100249.41;;;22.44;76.37
14882;BME280;7533;51.278;12.588;2022-10-23T03:38:01;100256.00;;;22.40;76.55
14882;BME280;7533;51.278;12.588;2022-10-23T03:43:04;100245.44;;;22.37;76.76
14882;BME280;7533;51.278;12.588;2022-10-23T03:48:09;100242.00;;;22.35;76.93
14882;BME280;7533;51.278;12.588;2022-10-23T03:53:11;100243.19;;;22.31;76.92
14882;BME280;7533;51.278;12.588;2022-10-23T03:58:14;100229.06;;;22.27;77.17
14882;BME280;7533;51.278;12.588;2022-10-23T04:03:18;100228.34;;;22.25;77.23
14882;BME280;7533;51.278;12.588;2022-10-23T04:08:21;100226.94;;;22.20;77.48
14882;BME280;7533;51.278;12.588;2022-10-23T04:13:27;100235.25;;;22.16;77.42
14882;BME280;7533;51.278;12.588;2022-10-23T04:18:31;100242.84;;;22.11;77.70
14882;BME280;7533;51.278;12.588;2022-10-23T04:23:34;100243.88;;;22.09;77.99
14882;BME280;7533;51.278;12.588;2022-10-23T04:28:38;100245.06;;;22.05;78.30
14882;BME280;7533;51.278;12.588;2022-10-23T04:33:42;100253.50;;;22.00;78.45
14882;BME280;7533;51.278;12.588;2022-10-23T04:38:59;100256.41;;;21.97;78.63
14882;BME280;7533;51.278;12.588;2022-10-23T04:44:02;100249.28;;;21.96;78.51
14882;BME280;7533;51.278;12.588;2022-10-23T04:49:08;100233.25;;;21.95;78.79
14882;BME280;7533;51.278;12.588;2022-10-23T04:54:19;100230.63;;;21.93;78.80
14882;BME280;7533;51.278;12.588;2022-10-23T04:59:31;100229.78;;;21.92;78.78
14882;BME280;7533;51.278;12.588;2022-10-23T05:04:36;100237.25;;;21.89;78.91
14882;BME280;7533;51.278;12.588;2022-10-23T05:09:57;100234.75;;;21.86;79.05
14882;BME280;7533;51.278;12.588;2022-10-23T05:15:11;100233.16;;;21.83;79.06
14882;BME280;7533;51.278;12.588;2022-10-23T05:20:19;100226.00;;;21.82;79.29
14882;BME280;7533;51.278;12.588;2022-10-23T05:25:22;100214.63;;;21.79;79.45
14882;BME280;7533;51.278;12.588;2022-10-23T05:30:34;100221.06;;;21.76;79.58
14882;BME280;7533;51.278;12.588;2022-10-23T05:35:39;100222.03;;;21.75;79.83
14882;BME280;7533;51.278;12.588;2022-10-23T05:40:43;100223.13;;;21.73;79.80
14882;BME280;7533;51.278;12.588;2022-10-23T05:45:52;100218.69;;;21.72;79.87
14882;BME280;7533;51.278;12.588;2022-10-23T05:51:03;100226.16;;;21.68;80.07
14882;BME280;7533;51.278;12.588;2022-10-23T05:56:22;100217.41;;;21.64;80.22
14882;BME280;7533;51.278;12.588;2022-10-23T06:01:48;100217.75;;;21.60;80.50
14882;BME280;7533;51.278;12.588;2022-10-23T06:07:04;100215.28;;;21.57;80.60
14882;BME280;7533;51.278;12.588;2022-10-23T06:12:07;100215.16;;;21.58;80.56
14882;BME280;7533;51.278;12.588;2022-10-23T06:17:10;100209.03;;;21.56;80.43
14882;BME280;7533;51.278;12.588;2022-10-23T06:22:17;100219.69;;;21.58;80.64
14882;BME280;7533;51.278;12.588;2022-10-23T06:27:33;100217.00;;;21.58;80.53
14882;BME280;7533;51.278;12.588;2022-10-23T06:32:38;100217.00;;;21.58;80.47
14882;BME280;7533;51.278;12.588;2022-10-23T06:37:47;100211.50;;;21.59;80.38
14882;BME280;7533;51.278;12.588;2022-10-23T06:42:58;100222.50;;;21.56;80.87
14882;BME280;7533;51.278;12.588;2022-10-23T06:48:10;100225.28;;;21.55;80.99
14882;BME280;7533;51.278;12.588;2022-10-23T06:53:33;100229.72;;;21.56;80.97
14882;BME280;7533;51.278;12.588;2022-10-23T06:58:48;100229.59;;;21.57;80.91
14882;BME280;7533;51.278;12.588;2022-10-23T07:03:51;100230.47;;;21.58;80.79
14882;BME280;7533;51.278;12.588;2022-10-23T07:09:01;100229.16;;;21.63;80.78
14882;BME280;7533;51.278;12.588;2022-10-23T07:14:22;100232.41;;;21.69;80.00
14882;BME280;7533;51.278;12.588;2022-10-23T07:19:25;100224.09;;;21.72;79.06
14882;BME280;7533;51.278;12.588;2022-10-23T07:24:36;100218.81;;;21.70;78.38
14882;BME280;7533;51.278;12.588;2022-10-23T07:29:49;100224.19;;;21.70;77.82
14882;BME280;7533;51.278;12.588;2022-10-23T07:34:52;100228.00;;;21.68;77.88
14882;BME280;7533;51.278;12.588;2022-10-23T07:40:03;100239.31;;;21.73;77.36
14882;BME280;7533;51.278;12.588;2022-10-23T07:45:13;100228.16;;;21.77;76.63
14882;BME280;7533;51.278;12.588;2022-10-23T07:50:18;100227.22;;;21.78;75.21
14882;BME280;7533;51.278;12.588;2022-10-23T07:55:23;100224.88;;;21.35;68.45
14882;BME280;7533;51.278;12.588;2022-10-23T08:00:33;100225.75;;;21.09;68.46
14882;BME280;7533;51.278;12.588;2022-10-23T08:05:45;100230.56;;;21.31;70.00
14882;BME280;7533;51.278;12.588;2022-10-23T08:10:51;100223.13;;;21.47;70.45
14882;BME280;7533;51.278;12.588;2022-10-23T08:16:00;100210.88;;;21.56;70.71
14882;BME280;7533;51.278;12.588;2022-10-23T08:21:26;100200.53;;;21.62;71.05
14882;BME280;7533;51.278;12.588;2022-10-23T08:26:30;100179.72;;;21.64;71.36
14882;BME280;7533;51.278;12.588;2022-10-23T08:31:33;100185.63;;;21.70;71.40
14882;BME280;7533;51.278;12.588;2022-10-23T08:36:49;100188.22;;;21.71;71.45
14882;BME280;7533;51.278;12.588;2022-10-23T08:41:53;100183.59;;;21.73;71.51
14882;BME280;7533;51.278;12.588;2022-10-23T08:47:01;100201.34;;;21.76;71.61
14882;BME280;7533;51.278;12.588;2022-10-23T08:52:19;100186.91;;;21.77;71.63
14882;BME280;7533;51.278;12.588;2022-10-23T08:57:27;100190.38;;;21.79;71.65
14882;BME280;7533;51.278;12.588;2022-10-23T09:02:38;100182.16;;;21.80;71.57
14882;BME280;7533;51.278;12.588;2022-10-23T09:07:55;100183.88;;;21.81;71.80
14882;BME280;7533;51.278;12.588;2022-10-23T09:13:26;100199.84;;;21.84;71.91
14882;BME280;7533;51.278;12.588;2022-10-23T09:18:33;100216.63;;;21.88;71.85
14882;BME280;7533;51.278;12.588;2022-10-23T09:23:36;100197.69;;;21.89;71.71
14882;BME280;7533;51.278;12.588;2022-10-23T09:28:45;100189.34;;;21.92;71.77
14882;BME280;7533;51.278;12.588;2022-10-23T09:33:53;100190.97;;;21.95;71.59
14882;BME280;7533;51.278;12.588;2022-10-23T09:38:58;100178.25;;;21.97;71.57
14882;BME280;7533;51.278;12.588;2022-10-23T09:44:16;100192.47;;;21.99;71.44
14882;BME280;7533;51.278;12.588;2022-10-23T09:49:22;100194.22;;;22.00;71.48
14882;BME280;7533;51.278;12.588;2022-10-23T09:54:26;100190.41;;;22.03;71.45
14882;BME280;7533;51.278;12.588;2022-10-23T09:59:31;100190.28;;;22.04;71.34
14882;BME280;7533;51.278;12.588;2022-10-23T10:04:37;100187.25;;;22.09;71.35
14882;BME280;7533;51.278;12.588;2022-10-23T10:09:40;100175.53;;;22.10;71.29
14882;BME280;7533;51.278;12.588;2022-10-23T10:15:04;100181.69;;;22.12;71.05
14882;BME280;7533;51.278;12.588;2022-10-23T10:20:20;100167.97;;;22.15;71.05
14882;BME280;7533;51.278;12.588;2022-10-23T10:25:29;100160.41;;;22.20;71.21
14882;BME280;7533;51.278;12.588;2022-10-23T10:30:44;100137.66;;;22.24;71.30
14882;BME280;7533;51.278;12.588;2022-10-23T10:35:55;100131.16;;;22.27;72.61
14882;BME280;7533;51.278;12.588;2022-10-23T10:41:20;100134.50;;;22.30;72.94
14882;BME280;7533;51.278;12.588;2022-10-23T10:46:29;100123.56;;;22.32;72.78
14882;BME280;7533;51.278;12.588;2022-10-23T10:51:39;100113.66;;;22.32;72.35
14882;BME280;7533;51.278;12.588;2022-10-23T10:56:46;100105.63;;;22.20;69.40
14882;BME280;7533;51.278;12.588;2022-10-23T11:01:54;100095.31;;;22.13;70.32
14882;BME280;7533;51.278;12.588;2022-10-23T11:07:04;100092.50;;;22.15;68.19
14882;BME280;7533;51.278;12.588;2022-10-23T11:12:14;100099.09;;;22.11;67.62
14882;BME280;7533;51.278;12.588;2022-10-23T11:17:24;100097.66;;;22.18;67.72
14882;BME280;7533;51.278;12.588;2022-10-23T11:22:34;100087.63;;;22.20;67.51
14882;BME280;7533;51.278;12.588;2022-10-23T11:28:07;100078.22;;;22.26;68.78
14882;BME280;7533;51.278;12.588;2022-10-23T11:33:49;100074.06;;;22.33;66.88
14882;BME280;7533;51.278;12.588;2022-10-23T11:39:06;100067.13;;;22.41;66.19
14882;BME280;7533;51.278;12.588;2022-10-23T11:44:26;100067.59;;;22.35;67.95
14882;BME280;7533;51.278;12.588;2022-10-23T11:49:30;100063.44;;;22.42;68.47
14882;BME280;7533;51.278;12.588;2022-10-23T11:54:33;100041.66;;;22.46;67.88
14882;BME280;7533;51.278;12.588;2022-10-23T11:59:49;100023.38;;;22.49;66.94
14882;BME280;7533;51.278;12.588;2022-10-23T12:04:54;100015.06;;;22.52;64.62
14882;BME280;7533;51.278;12.588;2022-10-23T12:09:59;100005.00;;;22.54;66.71
14882;BME280;7533;51.278;12.588;2022-10-23T12:15:16;99987.31;;;22.50;67.47
14882;BME280;7533;51.278;12.588;2022-10-23T12:20:36;99975.44;;;22.53;67.16
14882;BME280;7533;51.278;12.588;2022-10-23T12:25:52;99976.94;;;22.57;66.98
14882;BME280;7533;51.278;12.588;2022-10-23T12:31:06;99976.31;;;22.53;66.56
14882;BME280;7533;51.278;12.588;2022-10-23T12:36:33;99966.00;;;22.58;66.70
14882;BME280;7533;51.278;12.588;2022-10-23T12:41:41;99962.69;;;22.55;66.65
14882;BME280;7533;51.278;12.588;2022-10-23T12:46:46;99968.94;;;22.55;66.77
14882;BME280;7533;51.278;12.588;2022-10-23T12:51:59;99953.16;;;22.51;66.79
14882;BME280;7533;51.278;12.588;2022-10-23T12:57:18;99943.22;;;22.62;66.91
14882;BME280;7533;51.278;12.588;2022-10-23T13:02:23;99934.50;;;22.70;67.08
14882;BME280;7533;51.278;12.588;2022-10-23T13:07:31;99925.28;;;22.61;67.12
14882;BME280;7533;51.278;12.588;2022-10-23T13:12:39;99922.00;;;22.69;67.31
14882;BME280;7533;51.278;12.588;2022-10-23T13:17:59;99920.03;;;22.71;67.71
14882;BME280;7533;51.278;12.588;2022-10-23T13:23:10;99923.00;;;22.79;67.47
14882;BME280;7533;51.278;12.588;2022-10-23T13:28:22;99921.16;;;22.80;66.96
14882;BME280;7533;51.278;12.588;2022-10-23T13:33:31;99920.88;;;22.83;67.15
14882;BME280;7533;51.278;12.588;2022-10-23T13:38:36;99905.69;;;22.82;67.55
14882;BME280;7533;51.278;12.588;2022-10-23T13:43:42;99899.66;;;22.78;67.39
14882;BME280;7533;51.278;12.588;2022-10-23T13:48:46;99908.50;;;22.80;67.54
14882;BME280;7533;51.278;12.588;2022-10-23T13:53:51;99895.16;;;22.79;67.66
14882;BME280;7533;51.278;12.588;2022-10-23T13:58:54;99883.75;;;22.75;67.23
14882;BME280;7533;51.278;12.588;2022-10-23T14:03:57;99874.91;;;22.73;67.50
14882;BME280;7533;51.278;12.588;2022-10-23T14:09:02;99878.34;;;22.75;67.73
14882;BME280;7533;51.278;12.588;2022-10-23T14:14:05;99873.06;;;22.74;67.54
14882;BME280;7533;51.278;12.588;2022-10-23T14:19:09;99866.81;;;22.73;67.78
14882;BME280;7533;51.278;12.588;2022-10-23T14:24:13;99863.38;;;22.71;68.06
14882;BME280;7533;51.278;12.588;2022-10-23T14:29:16;99851.72;;;22.70;67.91
14882;BME280;7533;51.278;12.588;2022-10-23T14:34:24;99845.72;;;22.67;68.22
14882;BME280;7533;51.278;12.588;2022-10-23T14:39:29;99831.88;;;22.60;68.19
14882;BME280;7533;51.278;12.588;2022-10-23T14:44:32;99815.69;;;22.60;68.43
14882;BME280;7533;51.278;12.588;2022-10-23T14:49:35;99820.09;;;22.61;68.29
14882;BME280;7533;51.278;12.588;2022-10-23T14:54:42;99823.06;;;22.58;68.47
14882;BME280;7533;51.278;12.588;2022-10-23T14:59:44;99819.75;;;22.55;68.38
14882;BME280;7533;51.278;12.588;2022-10-23T15:04:47;99823.56;;;22.52;67.92
14882;BME280;7533;51.278;12.588;2022-10-23T15:09:51;99823.28;;;22.55;67.61
14882;BME280;7533;51.278;12.588;2022-10-23T15:14:54;99807.38;;;22.52;67.83
14882;BME280;7533;51.278;12.588;2022-10-23T15:19:57;99807.88;;;22.46;67.11
14882;BME280;7533;51.278;12.588;2022-10-23T15:25:01;99811.16;;;22.50;67.10
14882;BME280;7533;51.278;12.588;2022-10-23T15:30:05;99815.84;;;22.48;66.88
14882;BME280;7533;51.278;12.588;2022-10-23T15:35:07;99808.13;;;22.43;66.24
14882;BME280;7533;51.278;12.588;2022-10-23T15:40:12;99802.50;;;22.46;66.31
14882;BME280;7533;51.278;12.588;2022-10-23T15:45:14;99791.94;;;22.43;66.02
14882;BME280;7533;51.278;12.588;2022-10-23T15:50:17;99782.34;;;22.50;65.37
14882;BME280;7533;51.278;12.588;2022-10-23T15:55:22;99786.66;;;22.53;65.33
14882;BME280;7533;51.278;12.588;2022-10-23T16:00:25;99774.13;;;22.63;66.28
14882;BME280;7533;51.278;12.588;2022-10-23T16:05:27;99778.75;;;22.72;66.54
14882;BME280;7533;51.278;12.588;2022-10-23T16:10:32;99779.34;;;22.87;65.99
14882;BME280;7533;51.278;12.588;2022-10-23T16:15:35;99764.84;;;22.99;65.88
14882;BME280;7533;51.278;12.588;2022-10-23T16:20:38;99749.47;;;23.11;65.94
14882;BME280;7533;51.278;12.588;2022-10-23T16:25:43;99738.88;;;23.19;65.75
14882;BME280;7533;51.278;12.588;2022-10-23T16:30:46;99715.38;;;23.31;65.67
14882;BME280;7533;51.278;12.588;2022-10-23T16:35:49;99708.72;;;23.35;65.74
14882;BME280;7533;51.278;12.588;2022-10-23T16:40:57;99713.84;;;23.38;65.76
14882;BME280;7533;51.278;12.588;2022-10-23T16:46:16;99718.63;;;23.55;65.41
14882;BME280;7533;51.278;12.588;2022-10-23T16:51:22;99709.53;;;23.56;65.72
14882;BME280;7533;51.278;12.588;2022-10-23T16:56:27;99701.44;;;23.56;65.82
14882;BME280;7533;51.278;12.588;2022-10-23T17:01:31;99703.88;;;23.59;65.63
14882;BME280;7533;51.278;12.588;2022-10-23T17:06:35;99672.94;;;23.63;65.85
14882;BME280;7533;51.278;12.588;2022-10-23T17:11:40;99671.94;;;23.64;65.74
14882;BME280;7533;51.278;12.588;2022-10-23T17:16:47;99669.25;;;23.64;65.97
14882;BME280;7533;51.278;12.588;2022-10-23T17:21:51;99674.50;;;23.66;65.84
14882;BME280;7533;51.278;12.588;2022-10-23T17:26:56;99686.31;;;23.65;65.92
14882;BME280;7533;51.278;12.588;2022-10-23T17:31:58;99687.16;;;23.65;65.94
14882;BME280;7533;51.278;12.588;2022-10-23T17:37:01;99687.88;;;23.67;66.08
14882;BME280;7533;51.278;12.588;2022-10-23T17:42:05;99678.81;;;23.68;66.12
14882;BME280;7533;51.278;12.588;2022-10-23T17:47:08;99668.97;;;23.67;66.23
14882;BME280;7533;51.278;12.588;2022-10-23T17:52:11;99681.81;;;23.75;65.88
14882;BME280;7533;51.278;12.588;2022-10-23T17:57:16;99681.41;;;23.80;65.95
14882;BME280;7533;51.278;12.588;2022-10-23T18:02:19;99672.56;;;23.78;66.02
14882;BME280;7533;51.278;12.588;2022-10-23T18:07:22;99657.34;;;23.77;66.26
14882;BME280;7533;51.278;12.588;2022-10-23T18:12:28;99649.09;;;23.78;66.12
14882;BME280;7533;51.278;12.588;2022-10-23T18:17:31;99642.16;;;23.85;66.11
14882;BME280;7533;51.278;12.588;2022-10-23T18:22:34;99617.56;;;23.88;66.05
14882;BME280;7533;51.278;12.588;2022-10-23T18:27:38;99615.84;;;23.87;65.81
14882;BME280;7533;51.278;12.588;2022-10-23T18:32:41;99609.19;;;23.91;66.16
14882;BME280;7533;51.278;12.588;2022-10-23T18:37:44;99611.75;;;23.93;65.96
14882;BME280;7533;51.278;12.588;2022-10-23T18:42:49;99613.44;;;23.94;66.16
14882;BME280;7533;51.278;12.588;2022-10-23T18:47:52;99617.84;;;23.95;66.00
14882;BME280;7533;51.278;12.588;2022-10-23T18:52:55;99601.38;;;23.98;65.97
14882;BME280;7533;51.278;12.588;2022-10-23T18:57:59;99604.22;;;24.06;65.91
14882;BME280;7533;51.278;12.588;2022-10-23T19:03:02;99610.78;;;24.04;65.92
14882;BME280;7533;51.278;12.588;2022-10-23T19:08:05;99611.47;;;24.06;66.17
14882;BME280;7533;51.278;12.588;2022-10-23T19:13:09;99604.50;;;24.03;65.76
14882;BME280;7533;51.278;12.588;2022-10-23T19:18:12;99597.81;;;24.07;65.84
14882;BME280;7533;51.278;12.588;2022-10-23T19:23:15;99591.00;;;24.03;65.83
14882;BME280;7533;51.278;12.588;2022-10-23T19:28:19;99577.91;;;24.08;65.84
14882;BME280;7533;51.278;12.588;2022-10-23T19:33:21;99564.09;;;24.11;65.94
14882;BME280;7533;51.278;12.588;2022-10-23T19:38:24;99554.44;;;24.09;66.02
14882;BME280;7533;51.278;12.588;2022-10-23T19:43:28;99538.06;;;24.10;65.50
14882;BME280;7533;51.278;12.588;2022-10-23T19:48:31;99531.38;;;24.05;66.04
14882;BME280;7533;51.278;12.588;2022-10-23T19:53:34;99528.25;;;24.09;65.90
14882;BME280;7533;51.278;12.588;2022-10-23T19:58:39;99531.66;;;24.11;65.73
14882;BME280;7533;51.278;12.588;2022-10-23T20:03:43;99531.38;;;24.05;65.97
14882;BME280;7533;51.278;12.588;2022-10-23T20:08:46;99536.94;;;24.03;66.07
14882;BME280;7533;51.278;12.588;2022-10-23T20:13:51;99538.78;;;24.02;65.91
14882;BME280;7533;51.278;12.588;2022-10-23T20:18:54;99535.22;;;24.02;66.29
14882;BME280;7533;51.278;12.588;2022-10-23T20:23:57;99541.75;;;23.99;65.86
14882;BME280;7533;51.278;12.588;2022-10-23T20:29:02;99578.47;;;24.02;66.14
14882;BME280;7533;51.278;12.588;2022-10-23T20:34:05;99603.22;;;24.07;65.98
14882;BME280;7533;51.278;12.588;2022-10-23T20:39:09;99620.72;;;24.13;65.74
14882;BME280;7533;51.278;12.588;2022-10-23T20:44:16;99637.25;;;24.10;65.86
14882;BME280;7533;51.278;12.588;2022-10-23T20:49:19;99666.28;;;24.08;66.40
14882;BME280;7533;51.278;12.588;2022-10-23T20:54:23;99681.50;;;24.09;66.38
14882;BME280;7533;51.278;12.588;2022-10-23T20:59:27;99696.28;;;24.05;66.26
14882;BME280;7533;51.278;12.588;2022-10-23T21:04:29;99714.81;;;24.09;66.52
14882;BME280;7533;51.278;12.588;2022-10-23T21:09:32;99731.19;;;24.17;66.28
14882;BME280;7533;51.278;12.588;2022-10-23T21:14:36;99729.22;;;24.19;65.89
14882;BME280;7533;51.278;12.588;2022-10-23T21:19:39;99742.44;;;24.22;66.00
14882;BME280;7533;51.278;12.588;2022-10-23T21:24:42;99747.28;;;24.19;66.22
14882;BME280;7533;51.278;12.588;2022-10-23T21:29:46;99768.03;;;24.18;65.94
14882;BME280;7533;51.278;12.588;2022-10-23T21:34:48;99758.38;;;24.16;66.34
14882;BME280;7533;51.278;12.588;2022-10-23T21:39:51;99752.91;;;24.06;66.65
14882;BME280;7533;51.278;12.588;2022-10-23T21:44:55;99769.28;;;24.05;66.67
14882;BME280;7533;51.278;12.588;2022-10-23T21:49:58;99761.41;;;24.01;66.97
14882;BME280;7533;51.278;12.588;2022-10-23T21:55:00;99736.66;;;23.96;67.06
14882;BME280;7533;51.278;12.588;2022-10-23T22:00:06;99737.06;;;23.92;67.09
14882;BME280;7533;51.278;12.588;2022-10-23T22:05:13;99749.84;;;23.90;67.51
14882;BME280;7533;51.278;12.588;2022-10-23T22:10:16;99723.81;;;23.89;67.55
14882;BME280;7533;51.278;12.588;2022-10-23T22:15:20;99732.78;;;23.89;67.62
14882;BME280;7533;51.278;12.588;2022-10-23T22:20:23;99712.00;;;23.90;67.59
14882;BME280;7533;51.278;12.588;2022-10-23T22:25:25;99691.38;;;23.89;67.55
14882;BME280;7533;51.278;12.588;2022-10-23T22:30:29;99677.00;;;23.88;67.59
14882;BME280;7533;51.278;12.588;2022-10-23T22:35:32;99704.34;;;23.85;67.73
14882;BME280;7533;51.278;12.588;2022-10-23T22:40:35;99707.44;;;23.81;68.15
14882;BME280;7533;51.278;12.588;2022-10-23T22:45:39;99709.00;;;23.83;68.02
14882;BME280;7533;51.278;12.588;2022-10-23T22:50:44;99712.00;;;23.80;68.18
14882;BME280;7533;51.278;12.588;2022-10-23T22:55:47;99716.41;;;23.81;68.28
14882;BME280;7533;51.278;12.588;2022-10-23T23:01:01;99704.13;;;23.77;68.26
14882;BME280;7533;51.278;12.588;2022-10-23T23:06:06;99701.59;;;23.75;68.38
14882;BME280;7533;51.278;12.588;2022-10-23T23:11:11;99698.28;;;23.72;68.42
14882;BME280;7533;51.278;12.588;2022-10-23T23:16:21;99690.56;;;23.67;68.80
14882;BME280;7533;51.278;12.588;2022-10-23T23:21:24;99678.34;;;23.63;68.87
14882;BME280;7533;51.278;12.588;2022-10-23T23:26:27;99683.13;;;23.60;68.94
14882;BME280;7533;51.278;12.588;2022-10-23T23:31:32;99696.31;;;23.53;69.38
14882;BME280;7533;51.278;12.588;2022-10-23T23:36:34;99702.13;;;23.48;69.41
14882;BME280;7533;51.278;12.588;2022-10-23T23:41:37;99686.44;;;23.42;69.75
14882;BME280;7533;51.278;12.588;2022-10-23T23:46:41;99695.94;;;23.37;70.03
14882;BME280;7533;51.278;12.588;2022-10-23T23:51:44;99701.88;;;23.31;70.10
14882;BME280;7533;51.278;12.588;2022-10-23T23:56:47;99705.81;;;23.27;70.39
